createdAt,value
2019-04-04T00:00:42.424Z,96880
2019-04-04T00:02:11.939Z,96874
2019-04-04T00:03:40.659Z,96871
2019-04-04T00:05:11.699Z,96867
2019-04-04T00:06:41.303Z,96861
2019-04-04T00:08:10.041Z,96854
2019-04-04T00:09:39.710Z,96847
2019-04-04T00:11:10.901Z,96844
2019-04-04T00:12:39.826Z,96851
2019-04-04T00:14:08.582Z,96849
2019-04-04T00:15:37.307Z,96839
2019-04-04T00:17:06.024Z,96827
2019-04-04T00:18:34.899Z,96821
2019-04-04T00:20:05.782Z,96822
2019-04-04T00:21:34.751Z,96834
2019-04-04T00:23:06.864Z,96848
2019-04-04T00:24:36.272Z,96855
2019-04-04T00:26:05.069Z,96853
2019-04-04T00:27:33.785Z,96848
2019-04-04T00:29:02.506Z,96846
2019-04-04T00:30:32.199Z,96840
2019-04-04T00:32:01.068Z,96834
2019-04-04T00:33:30.746Z,96837
2019-04-04T00:35:00.470Z,96843
2019-04-04T00:36:29.468Z,96844
2019-04-04T00:37:58.182Z,96838
2019-04-04T00:39:27.378Z,96832
2019-04-04T00:40:56.096Z,96823
2019-04-04T00:42:25.380Z,96806
2019-04-04T00:43:56.583Z,96790
2019-04-04T00:45:29.498Z,96781
2019-04-04T00:46:58.346Z,96783
2019-04-04T00:48:27.623Z,96797
2019-04-04T00:49:56.502Z,96806
2019-04-04T00:51:25.225Z,96799
2019-04-04T00:52:55.386Z,96789
2019-04-04T00:54:24.344Z,96782
2019-04-04T00:55:53.101Z,96777
2019-04-04T00:57:23.791Z,96774
2019-04-04T00:58:52.682Z,96769
2019-04-04T01:00:24.498Z,96766
2019-04-04T01:01:57.487Z,96763
2019-04-04T01:03:30.557Z,96758
2019-04-04T01:05:02.216Z,96749
2019-04-04T01:06:34.308Z,96744
2019-04-04T01:08:03.157Z,96747
2019-04-04T01:09:34.426Z,96755
2019-04-04T01:11:03.161Z,96763
2019-04-04T01:12:32.034Z,96771
2019-04-04T01:14:03.309Z,96774
2019-04-04T01:15:32.121Z,96773
2019-04-04T01:17:04.740Z,96769
2019-04-04T01:18:37.538Z,96760
2019-04-04T01:20:08.516Z,96758
2019-04-04T01:21:39.314Z,96763
2019-04-04T01:23:08.036Z,96765
2019-04-04T01:24:36.744Z,96758
2019-04-04T01:26:08.288Z,96745
2019-04-04T01:27:37.814Z,96743
2019-04-04T01:29:11.053Z,96748
2019-04-04T01:30:44.094Z,96750
2019-04-04T01:32:12.905Z,96756
2019-04-04T01:33:41.620Z,96767
2019-04-04T01:35:10.347Z,96771
2019-04-04T01:36:39.068Z,96771
2019-04-04T01:38:07.912Z,96764
2019-04-04T01:39:37.072Z,96759
2019-04-04T01:41:09.300Z,96763
2019-04-04T01:42:39.015Z,96770
2019-04-04T01:44:11.852Z,96773
2019-04-04T01:45:44.663Z,96772
2019-04-04T01:47:17.592Z,96766
2019-04-04T01:48:50.506Z,96757
2019-04-04T01:50:23.341Z,96753
2019-04-04T01:51:52.181Z,96750
2019-04-04T01:53:22.900Z,96747
2019-04-04T01:54:53.063Z,96744
2019-04-04T01:56:21.859Z,96738
2019-04-04T01:57:50.605Z,96730
2019-04-04T01:59:19.380Z,96726
2019-04-04T02:00:51.562Z,96728
2019-04-04T02:02:22.994Z,96727
2019-04-04T02:03:54.209Z,96728
2019-04-04T02:05:27.588Z,96731
2019-04-04T02:06:59.694Z,96733
2019-04-04T02:08:32.082Z,96732
2019-04-04T02:10:00.902Z,96725
2019-04-04T02:11:30.178Z,96719
2019-04-04T02:12:58.900Z,96714
2019-04-04T02:14:27.624Z,96707
2019-04-04T02:15:59.141Z,96702
2019-04-04T02:17:28.739Z,96699
2019-04-04T02:18:59.643Z,96694
2019-04-04T02:20:31.704Z,96689
2019-04-04T02:22:00.477Z,96688
2019-04-04T02:23:32.150Z,96685
2019-04-04T02:25:03.854Z,96679
2019-04-04T02:26:36.659Z,96675
2019-04-04T02:28:09.477Z,96668
2019-04-04T02:29:42.365Z,96657
2019-04-04T02:31:11.307Z,96649
2019-04-04T02:32:40.020Z,96645
2019-04-04T02:34:11.383Z,96640
2019-04-04T02:35:43.876Z,96637
2019-04-04T02:37:12.828Z,96638
2019-04-04T02:38:41.699Z,96636
2019-04-04T02:40:13.545Z,96630
2019-04-04T02:41:42.264Z,96625
2019-04-04T02:43:11.940Z,96625
2019-04-04T02:44:40.747Z,96623
2019-04-04T02:46:12.401Z,96624
2019-04-04T02:47:41.314Z,96630
2019-04-04T02:49:10.108Z,96639
2019-04-04T02:50:40.754Z,96645
2019-04-04T02:52:14.070Z,96652
2019-04-04T02:53:44.023Z,96665
2019-04-04T02:55:12.740Z,96676
2019-04-04T02:56:41.629Z,96688
2019-04-04T02:58:15.334Z,96695
2019-04-04T02:59:44.264Z,96701
2019-04-04T03:01:12.979Z,96703
2019-04-04T03:02:42.097Z,96704
2019-04-04T03:04:14.476Z,96700
2019-04-04T03:05:45.062Z,96688
2019-04-04T03:07:13.946Z,96679
2019-04-04T03:08:43.063Z,96678
2019-04-04T03:10:16.740Z,96680
2019-04-04T03:11:45.826Z,96680
2019-04-04T03:13:15.544Z,96686
2019-04-04T03:14:44.262Z,96697
2019-04-04T03:16:14.744Z,96705
2019-04-04T03:17:43.458Z,96712
2019-04-04T03:19:15.078Z,96717
2019-04-04T03:20:43.863Z,96718
2019-04-04T03:22:12.578Z,96717
2019-04-04T03:23:41.341Z,96715
2019-04-04T03:25:15.652Z,96709
2019-04-04T03:26:45.460Z,96701
2019-04-04T03:28:15.150Z,96696
2019-04-04T03:29:43.934Z,96691
2019-04-04T03:31:12.672Z,96687
2019-04-04T03:32:41.554Z,96684
2019-04-04T03:34:16.914Z,96678
2019-04-04T03:35:46.665Z,96670
2019-04-04T03:37:17.459Z,96664
2019-04-04T03:38:47.489Z,96658
2019-04-04T03:40:16.345Z,96655
2019-04-04T03:41:45.087Z,96653
2019-04-04T03:43:16.976Z,96649
2019-04-04T03:44:45.880Z,96648
2019-04-04T03:46:14.740Z,96650
2019-04-04T03:47:48.591Z,96652
2019-04-04T03:49:18.285Z,96657
2019-04-04T03:50:48.820Z,96665
2019-04-04T03:52:17.545Z,96666
2019-04-04T03:53:50.097Z,96661
2019-04-04T03:55:19.144Z,96657
2019-04-04T03:56:47.858Z,96657
2019-04-04T03:58:16.677Z,96656
2019-04-04T03:59:46.019Z,96654
2019-04-04T04:01:18.274Z,96655
2019-04-04T04:02:50.911Z,96661
2019-04-04T04:04:19.708Z,96669
2019-04-04T04:05:48.510Z,96675
2019-04-04T04:07:20.264Z,96673
2019-04-04T04:08:54.886Z,96667
2019-04-04T04:10:25.084Z,96662
2019-04-04T04:11:53.875Z,96660
2019-04-04T04:13:22.743Z,96663
2019-04-04T04:14:55.364Z,96667
2019-04-04T04:16:24.188Z,96667
2019-04-04T04:17:52.991Z,96665
2019-04-04T04:19:27.590Z,96660
2019-04-04T04:21:00.184Z,96650
2019-04-04T04:22:28.906Z,96648
2019-04-04T04:24:01.547Z,96644
2019-04-04T04:25:35.424Z,96636
2019-04-04T04:27:05.631Z,96631
2019-04-04T04:28:34.665Z,96624
2019-04-04T04:30:07.912Z,96615
2019-04-04T04:31:36.748Z,96611
2019-04-04T04:33:05.468Z,96612
2019-04-04T04:34:38.376Z,96612
2019-04-04T04:36:10.288Z,96608
2019-04-04T04:37:44.503Z,96603
2019-04-04T04:39:13.301Z,96598
2019-04-04T04:40:48.003Z,96603
2019-04-04T04:42:16.984Z,96601
2019-04-04T04:43:46.826Z,96592
2019-04-04T04:45:17.625Z,96583
2019-04-04T04:46:50.961Z,96581
2019-04-04T04:48:20.686Z,96584
2019-04-04T04:49:49.869Z,96586
2019-04-04T04:51:18.591Z,96585
2019-04-04T04:52:51.739Z,96578
2019-04-04T04:54:23.569Z,96577
2019-04-04T04:55:52.428Z,96582
2019-04-04T04:57:38.315Z,96589
2019-04-04T04:59:08.986Z,96583
2019-04-04T05:00:37.714Z,96575
2019-04-04T05:02:07.155Z,96573
2019-04-04T05:03:35.866Z,96577
2019-04-04T05:05:05.086Z,96580
2019-04-04T05:06:36.470Z,96585
2019-04-04T05:08:05.966Z,96588
2019-04-04T05:09:35.624Z,96591
2019-04-04T05:11:05.229Z,96596
2019-04-04T05:12:33.952Z,96604
2019-04-04T05:14:03.984Z,96609
2019-04-04T05:15:33.293Z,96611
2019-04-04T05:17:03.846Z,96611
2019-04-04T05:18:33.388Z,96610
2019-04-04T05:20:02.190Z,96613
2019-04-04T05:21:34.833Z,96617
2019-04-04T05:23:04.109Z,96618
2019-04-04T05:24:32.903Z,96615
2019-04-04T05:26:03.327Z,96612
2019-04-04T05:27:32.199Z,96615
2019-04-04T05:29:02.270Z,96617
2019-04-04T05:30:31.484Z,96613
2019-04-04T05:32:01.402Z,96608
2019-04-04T05:33:32.991Z,96604
2019-04-04T05:35:06.028Z,96604
2019-04-04T05:36:37.164Z,96611
2019-04-04T05:38:08.011Z,96613
2019-04-04T05:39:37.844Z,96614
2019-04-04T05:41:07.571Z,96612
2019-04-04T05:42:38.608Z,96613
2019-04-04T05:44:10.466Z,96613
2019-04-04T05:45:39.403Z,96618
2019-04-04T05:47:08.198Z,96619
2019-04-04T05:48:39.620Z,96620
2019-04-04T05:50:12.024Z,96620
2019-04-04T05:51:41.387Z,96623
2019-04-04T05:53:11.706Z,96624
2019-04-04T05:54:43.873Z,96621
2019-04-04T05:56:15.905Z,96614
2019-04-04T05:57:45.382Z,96610
2019-04-04T05:59:14.992Z,96608
2019-04-04T06:00:43.784Z,96606
2019-04-04T06:02:16.439Z,96603
2019-04-04T06:03:48.114Z,96595
2019-04-04T06:05:17.303Z,96593
2019-04-04T06:06:46.038Z,96597
2019-04-04T06:08:14.825Z,96604
2019-04-04T06:09:47.026Z,96607
2019-04-04T06:11:15.961Z,96604
2019-04-04T06:12:44.742Z,96598
2019-04-04T06:14:14.502Z,96600
2019-04-04T06:15:43.624Z,96605
2019-04-04T06:17:13.002Z,96604
2019-04-04T06:18:43.657Z,96598
2019-04-04T06:20:15.577Z,96597
2019-04-04T06:21:45.296Z,96600
2019-04-04T06:23:14.017Z,96606
2019-04-04T06:24:42.817Z,96606
2019-04-04T06:26:12.825Z,96601
2019-04-04T06:27:45.220Z,96599
2019-04-04T06:29:17.425Z,96597
2019-04-04T06:30:48.743Z,96599
2019-04-04T06:32:17.804Z,96601
2019-04-04T06:33:46.767Z,96600
2019-04-04T06:35:16.307Z,96597
2019-04-04T06:36:45.060Z,96594
2019-04-04T06:38:13.900Z,96595
2019-04-04T06:39:42.747Z,96596
2019-04-04T06:41:12.303Z,96596
2019-04-04T06:42:42.312Z,96597
2019-04-04T06:44:13.695Z,96600
2019-04-04T06:45:47.448Z,96599
2019-04-04T06:47:16.745Z,96595
2019-04-04T06:48:46.821Z,96594
2019-04-04T06:50:16.087Z,96597
2019-04-04T06:51:47.449Z,96598
2019-04-04T06:53:16.183Z,96600
2019-04-04T06:54:44.904Z,96602
2019-04-04T06:56:14.503Z,96604
2019-04-04T06:57:44.182Z,96602
2019-04-04T06:59:16.422Z,96597
2019-04-04T07:00:50.356Z,96594
2019-04-04T07:02:19.162Z,96593
2019-04-04T07:03:48.106Z,96593
2019-04-04T07:05:16.824Z,96589
2019-04-04T07:06:47.383Z,96586
2019-04-04T07:08:16.130Z,96582
2019-04-04T07:09:45.010Z,96578
2019-04-04T07:11:25.963Z,96577
2019-04-04T07:14:51.405Z,96575
2019-04-04T07:16:22.911Z,96578
2019-04-04T07:17:52.503Z,96579
2019-04-04T07:19:21.223Z,96577
2019-04-04T07:20:53.221Z,96574
2019-04-04T07:22:25.499Z,96574
2019-04-04T07:23:59.942Z,96573
2019-04-04T07:25:29.794Z,96572
2019-04-04T07:26:58.512Z,96570
2019-04-04T07:28:31.122Z,96563
2019-04-04T07:30:01.961Z,96558
2019-04-04T07:31:38.172Z,96554
2019-04-04T07:33:07.346Z,96552
2019-04-04T07:34:36.270Z,96548
2019-04-04T07:36:05.067Z,96551
2019-04-04T07:37:33.782Z,96553
2019-04-04T07:39:13.748Z,96553
2019-04-04T07:42:48.163Z,96548
2019-04-04T07:44:18.743Z,96545
2019-04-04T07:45:47.549Z,96549
2019-04-04T07:47:16.993Z,96551
2019-04-04T07:48:45.959Z,96554
2019-04-04T07:50:15.385Z,96555
2019-04-04T07:51:45.008Z,96554
2019-04-04T07:53:13.795Z,96555
2019-04-04T07:54:44.114Z,96553
2019-04-04T07:56:14.976Z,96558
2019-04-04T07:57:43.793Z,96559
2019-04-04T07:59:14.347Z,96562
2019-04-04T08:00:43.533Z,96565
2019-04-04T08:02:12.258Z,96567
2019-04-04T08:03:42.023Z,96568
2019-04-04T08:05:14.484Z,96567
2019-04-04T08:06:44.188Z,96563
2019-04-04T08:08:13.864Z,96563
2019-04-04T08:09:42.599Z,96565
2019-04-04T08:11:13.651Z,96569
2019-04-04T08:12:42.418Z,96572
2019-04-04T08:14:11.217Z,96573
2019-04-04T08:15:41.139Z,96575
2019-04-04T08:17:09.865Z,96576
2019-04-04T08:18:38.673Z,96578
2019-04-04T08:20:07.463Z,96580
2019-04-04T08:21:36.201Z,96583
2019-04-04T08:23:05.083Z,96586
2019-04-04T08:24:33.863Z,96587
2019-04-04T08:26:02.585Z,96588
2019-04-04T08:27:32.255Z,96589
2019-04-04T08:29:01.058Z,96590
2019-04-04T08:30:29.996Z,96591
2019-04-04T08:31:58.818Z,96591
2019-04-04T08:33:27.635Z,96590
2019-04-04T08:35:03.469Z,96590
2019-04-04T08:36:36.001Z,96595
2019-04-04T08:38:05.221Z,96598
2019-04-04T08:39:34.918Z,96597
2019-04-04T08:41:03.713Z,96595
2019-04-04T08:42:32.531Z,96591
2019-04-04T08:44:02.042Z,96589
2019-04-04T08:45:30.828Z,96588
2019-04-04T08:47:00.831Z,96589
2019-04-04T08:48:29.632Z,96589
2019-04-04T08:50:00.110Z,96591
2019-04-04T08:51:29.780Z,96591
2019-04-04T08:52:58.501Z,96591
2019-04-04T08:54:27.305Z,96591
2019-04-04T08:55:56.111Z,96592
2019-04-04T08:57:24.831Z,96594
2019-04-04T08:58:56.769Z,96591
2019-04-04T09:00:35.254Z,96586
2019-04-04T09:02:04.037Z,96577
2019-04-04T09:03:32.838Z,96570
2019-04-04T09:05:12.754Z,96563
2019-04-04T09:06:42.926Z,96562
2019-04-04T09:08:12.902Z,96560
2019-04-04T09:09:43.190Z,96555
2019-04-04T09:11:13.064Z,96552
2019-04-04T09:12:41.865Z,96552
2019-04-04T09:14:11.465Z,96552
2019-04-04T09:15:41.205Z,96553
2019-04-04T09:17:10.022Z,96552
2019-04-04T09:18:38.793Z,96548
2019-04-04T09:20:10.273Z,96544
2019-04-04T09:21:40.109Z,96539
2019-04-04T09:23:09.977Z,96536
2019-04-04T09:24:41.690Z,96536
2019-04-04T09:26:12.616Z,96533
2019-04-04T09:27:42.500Z,96529
2019-04-04T09:29:11.626Z,96529
2019-04-04T09:30:40.743Z,96528
2019-04-04T09:32:10.273Z,96527
2019-04-04T09:33:39.571Z,96528
2019-04-04T09:35:08.667Z,96529
2019-04-04T09:36:37.801Z,96532
2019-04-04T09:38:07.381Z,96537
2019-04-04T09:39:37.071Z,96542
2019-04-04T09:41:14.031Z,96545
2019-04-04T09:42:42.909Z,96547
2019-04-04T09:44:11.710Z,96550
2019-04-04T09:45:40.711Z,96552
2019-04-04T09:47:12.166Z,96552
2019-04-04T09:48:41.338Z,96550
2019-04-04T09:50:10.431Z,96551
2019-04-04T09:51:39.142Z,96552
2019-04-04T09:53:07.941Z,96550
2019-04-04T09:54:37.095Z,96548
2019-04-04T09:56:06.025Z,96547
2019-04-04T09:57:34.746Z,96547
2019-04-04T09:59:04.425Z,96550
2019-04-04T10:00:33.197Z,96553
2019-04-04T10:02:02.909Z,96557
2019-04-04T10:03:31.868Z,96556
2019-04-04T10:05:00.590Z,96551
2019-04-04T10:06:29.327Z,96544
2019-04-04T10:07:58.184Z,96538
2019-04-04T10:09:27.226Z,96537
2019-04-04T10:10:55.942Z,96540
2019-04-04T10:12:25.091Z,96542
2019-04-04T10:13:56.049Z,96540
2019-04-04T10:15:25.222Z,96542
2019-04-04T10:16:53.944Z,96541
2019-04-04T10:18:23.621Z,96537
2019-04-04T10:19:52.340Z,96534
2019-04-04T10:21:21.224Z,96531
2019-04-04T10:22:50.043Z,96529
2019-04-04T10:24:19.472Z,96531
2019-04-04T10:25:49.100Z,96533
2019-04-04T10:27:17.868Z,96528
2019-04-04T10:28:46.669Z,96524
2019-04-04T10:30:15.576Z,96523
2019-04-04T10:31:44.502Z,96521
2019-04-04T10:33:13.303Z,96521
2019-04-04T10:34:42.105Z,96524
2019-04-04T10:36:10.820Z,96522
2019-04-04T10:37:39.946Z,96517
2019-04-04T10:39:08.742Z,96513
2019-04-04T10:40:37.458Z,96511
2019-04-04T10:42:06.180Z,96510
2019-04-04T10:43:35.072Z,96514
2019-04-04T10:45:05.245Z,96523
2019-04-04T10:46:34.021Z,96535
2019-04-04T10:48:02.829Z,96538
2019-04-04T10:49:32.499Z,96540
2019-04-04T10:51:01.223Z,96544
2019-04-04T10:52:30.823Z,96548
2019-04-04T10:53:59.714Z,96550
2019-04-04T10:55:28.511Z,96551
2019-04-04T10:56:57.225Z,96549
2019-04-04T10:58:26.831Z,96550
2019-04-04T10:59:55.703Z,96547
2019-04-04T11:01:24.747Z,96543
2019-04-04T11:02:53.462Z,96547
2019-04-04T11:04:22.269Z,96553
2019-04-04T11:05:50.980Z,96553
2019-04-04T11:07:19.705Z,96555
2019-04-04T11:08:49.316Z,96557
2019-04-04T11:10:18.031Z,96560
2019-04-04T11:11:47.470Z,96556
2019-04-04T11:13:17.147Z,96552
2019-04-04T11:14:46.661Z,96553
2019-04-04T16:30:29.261Z,96612
2019-04-04T16:30:45.377Z,96783
2019-04-04T16:31:58.020Z,96784
2019-04-04T16:32:14.102Z,96785
2019-04-04T16:33:26.818Z,96779
2019-04-04T16:33:42.818Z,96779
2019-04-04T16:34:57.741Z,96779
2019-04-04T16:35:11.626Z,96780
2019-04-04T16:36:26.493Z,96784
2019-04-04T16:36:40.827Z,96786
2019-04-04T16:37:55.222Z,96788
2019-04-04T16:38:10.586Z,96788
2019-04-04T16:39:23.940Z,96790
2019-04-04T16:39:40.585Z,96791
2019-04-04T16:40:52.662Z,96792
2019-04-04T16:41:14.747Z,96791
2019-04-04T16:42:22.275Z,96792
2019-04-04T16:42:43.555Z,96795
2019-04-04T16:43:54.660Z,96796
2019-04-04T16:44:12.663Z,96797
2019-04-04T16:45:23.380Z,96798
2019-04-04T16:45:41.541Z,96798
2019-04-04T16:46:52.109Z,96796
2019-04-04T16:47:10.264Z,96796
2019-04-04T16:48:20.824Z,96793
2019-04-04T16:48:40.994Z,96792
2019-04-04T16:49:49.860Z,96791
2019-04-04T16:50:11.550Z,96790
2019-04-04T16:51:21.146Z,96794
2019-04-04T16:51:40.981Z,96795
2019-04-04T16:52:50.913Z,96793
2019-04-04T16:53:09.860Z,96793
2019-04-04T16:54:20.383Z,96793
2019-04-04T16:54:38.726Z,96793
2019-04-04T16:55:49.145Z,96798
2019-04-04T16:56:09.309Z,96800
2019-04-04T16:57:17.864Z,96804
2019-04-04T16:57:38.036Z,96803
2019-04-04T16:58:47.474Z,96808
2019-04-04T16:59:06.902Z,96808
2019-04-04T17:00:17.303Z,96806
2019-04-04T17:00:37.383Z,96805
2019-04-04T17:01:46.116Z,96806
2019-04-04T17:02:07.059Z,96808
2019-04-04T17:03:15.382Z,96812
2019-04-04T17:03:35.866Z,96812
2019-04-04T17:04:44.258Z,96813
2019-04-04T17:05:04.994Z,96814
2019-04-04T17:06:13.865Z,96814
2019-04-04T17:06:34.026Z,96817
2019-04-04T17:07:42.578Z,96823
2019-04-04T17:08:02.739Z,96826
2019-04-04T17:09:12.178Z,96836
2019-04-04T17:09:31.660Z,96839
2019-04-04T17:10:40.979Z,96842
2019-04-04T17:11:01.381Z,96843
2019-04-04T17:12:19.867Z,96839
2019-04-04T17:12:30.108Z,96837
2019-04-04T17:13:49.500Z,96829
2019-04-04T17:13:59.064Z,96829
2019-04-04T17:15:18.263Z,96820
2019-04-04T17:15:27.857Z,96820
2019-04-04T17:16:47.860Z,96816
2019-04-04T17:16:56.579Z,96816
2019-04-04T17:18:17.225Z,96814
2019-04-04T17:18:26.305Z,96814
2019-04-04T17:19:46.030Z,96822
2019-04-04T17:19:55.320Z,96823
2019-04-04T17:21:15.070Z,96833
2019-04-04T17:21:25.139Z,96835
2019-04-04T17:22:45.060Z,96840
2019-04-04T17:22:53.863Z,96840
2019-04-04T17:24:14.668Z,96841
2019-04-04T17:24:22.686Z,96840
2019-04-04T17:25:43.465Z,96836
2019-04-04T17:25:51.618Z,96836
2019-04-04T17:27:12.197Z,96835
2019-04-04T17:27:20.342Z,96835
2019-04-04T17:28:41.462Z,96837
2019-04-04T17:28:50.234Z,96836
2019-04-04T17:30:10.619Z,96841
2019-04-04T17:30:18.983Z,96843
2019-04-04T17:31:41.185Z,96844
2019-04-04T17:31:48.582Z,96844
2019-04-04T17:33:11.459Z,96845
2019-04-04T17:33:18.301Z,96845
2019-04-04T17:34:40.339Z,96844
2019-04-04T17:34:48.889Z,96844
2019-04-04T17:36:09.942Z,96842
2019-04-04T17:36:21.473Z,96842
2019-04-04T17:37:40.232Z,96844
2019-04-04T17:37:52.038Z,96844
2019-04-04T17:39:10.194Z,96845
2019-04-04T17:39:22.023Z,96843
2019-04-04T17:40:40.237Z,96850
2019-04-04T17:40:51.248Z,96852
2019-04-04T17:42:09.680Z,96857
2019-04-04T17:42:34.308Z,96859
2019-04-04T17:43:39.011Z,96863
2019-04-04T17:44:05.426Z,96865
2019-04-04T17:45:08.200Z,96864
2019-04-04T17:45:34.738Z,96862
2019-04-04T17:46:37.888Z,96862
2019-04-04T17:47:04.446Z,96862
2019-04-04T17:48:06.662Z,96859
2019-04-04T17:48:36.923Z,96857
2019-04-04T17:49:36.827Z,96853
2019-04-04T17:50:06.315Z,96854
2019-04-04T17:51:06.510Z,96852
2019-04-04T17:51:35.499Z,96851
2019-04-04T17:52:38.263Z,96848
2019-04-04T17:53:04.420Z,96848
2019-04-04T17:54:08.240Z,96844
2019-04-04T17:54:33.620Z,96841
2019-04-04T17:55:37.811Z,96838
2019-04-04T17:56:02.355Z,96837
2019-04-04T17:57:07.459Z,96840
2019-04-04T17:57:31.775Z,96840
2019-04-04T17:58:38.336Z,96842
2019-04-04T17:59:02.340Z,96842
2019-04-04T18:00:08.830Z,96847
2019-04-04T18:00:33.068Z,96849
2019-04-04T18:01:39.541Z,96850
2019-04-04T18:02:03.556Z,96851
2019-04-04T18:03:10.019Z,96851
2019-04-04T18:03:33.231Z,96851
2019-04-04T18:04:48.831Z,96852
2019-04-04T18:05:02.898Z,96850
2019-04-04T18:06:17.628Z,96849
2019-04-04T18:06:33.391Z,96849
2019-04-04T18:07:46.340Z,96846
2019-04-04T18:08:02.186Z,96847
2019-04-04T18:09:15.069Z,96847
2019-04-04T18:09:36.976Z,96847
2019-04-04T18:10:44.753Z,96845
2019-04-04T18:11:06.440Z,96846
2019-04-04T18:12:13.617Z,96847
2019-04-04T18:12:45.309Z,96849
2019-04-04T18:13:42.342Z,96850
2019-04-04T18:14:14.069Z,96853
2019-04-04T18:15:11.138Z,96856
2019-04-04T18:15:42.986Z,96860
2019-04-04T18:16:41.697Z,96864
2019-04-04T18:17:11.709Z,96866
2019-04-04T18:18:10.771Z,96868
2019-04-04T18:18:40.428Z,96871
2019-04-04T18:19:41.845Z,96876
2019-04-04T18:20:09.304Z,96876
2019-04-04T18:21:10.826Z,96880
2019-04-04T18:21:38.986Z,96882
2019-04-04T18:22:39.540Z,96884
2019-04-04T18:23:08.699Z,96886
2019-04-04T18:24:10.262Z,96888
2019-04-04T18:24:38.347Z,96887
2019-04-04T18:25:39.901Z,96888
2019-04-04T18:26:07.062Z,96888
2019-04-04T18:27:08.900Z,96890
2019-04-04T18:27:35.788Z,96890
2019-04-04T18:28:39.656Z,96894
2019-04-04T18:29:06.274Z,96895
2019-04-04T18:30:08.425Z,96899
2019-04-04T18:30:35.229Z,96899
2019-04-04T18:31:37.161Z,96901
2019-04-04T18:32:03.949Z,96901
2019-04-04T18:33:06.426Z,96902
2019-04-04T18:33:33.788Z,96901
2019-04-04T18:34:36.423Z,96903
2019-04-04T18:35:03.741Z,96903
2019-04-04T18:36:05.866Z,96905
2019-04-04T18:36:34.025Z,96905
2019-04-04T18:37:35.619Z,96904
2019-04-04T18:38:04.904Z,96905
2019-04-04T18:39:04.344Z,96906
2019-04-04T18:39:34.663Z,96907
2019-04-04T18:40:34.031Z,96910
2019-04-04T18:41:03.383Z,96911
2019-04-04T18:42:05.383Z,96914
2019-04-04T18:42:32.262Z,96915
2019-04-04T18:43:34.185Z,96919
2019-04-04T18:44:08.028Z,96921
2019-04-04T18:45:03.631Z,96923
2019-04-04T18:45:37.700Z,96927
2019-04-04T18:46:32.352Z,96928
2019-04-04T18:47:06.429Z,96930
2019-04-04T18:48:01.145Z,96933
2019-04-04T18:48:35.148Z,96933
2019-04-04T18:49:29.954Z,96937
2019-04-04T18:50:04.039Z,96938
2019-04-04T18:50:59.006Z,96940
2019-04-04T18:51:32.754Z,96939
2019-04-04T18:52:27.791Z,96942
2019-04-04T18:53:01.471Z,96941
2019-04-04T18:53:57.550Z,96941
2019-04-04T18:54:30.270Z,96942
2019-04-04T18:55:27.235Z,96942
2019-04-04T18:55:59.078Z,96940
2019-04-04T18:56:57.763Z,96941
2019-04-04T18:57:28.752Z,96940
2019-04-04T18:58:27.472Z,96939
2019-04-04T18:58:57.474Z,96939
2019-04-04T18:59:57.164Z,96937
2019-04-04T19:00:27.081Z,96936
2019-04-04T19:01:27.802Z,96938
2019-04-04T19:01:55.802Z,96939
2019-04-04T19:02:56.596Z,96940
2019-04-04T19:03:24.681Z,96940
2019-04-04T19:04:25.349Z,96941
2019-04-04T19:04:53.412Z,96943
2019-04-04T19:05:54.123Z,96947
2019-04-04T19:06:23.080Z,96948
2019-04-04T19:07:22.840Z,96952
2019-04-04T19:07:51.797Z,96952
2019-04-04T19:08:51.626Z,96955
2019-04-04T19:09:20.842Z,96957
2019-04-04T19:10:20.526Z,96960
2019-04-04T19:10:49.642Z,96961
2019-04-04T19:11:50.522Z,96964
2019-04-04T19:12:21.081Z,96966
2019-04-04T19:13:19.773Z,96969
2019-04-04T19:13:51.162Z,96969
2019-04-04T19:14:48.682Z,96974
2019-04-04T19:15:19.959Z,96975
2019-04-04T19:16:18.293Z,96977
2019-04-04T19:16:48.844Z,96978
2019-04-04T19:17:47.967Z,96979
2019-04-04T19:18:17.655Z,96979
2019-04-04T19:19:16.925Z,96978
2019-04-04T19:19:46.612Z,96979
2019-04-04T19:20:45.881Z,96980
2019-04-04T19:21:15.567Z,96981
2019-04-04T19:22:14.783Z,96981
2019-04-04T19:22:45.084Z,96981
2019-04-04T19:23:54.287Z,96981
2019-04-04T19:24:14.768Z,96979
2019-04-04T19:25:23.082Z,96978
2019-04-04T19:25:43.501Z,96978
2019-04-04T19:26:51.805Z,96980
2019-04-04T19:27:12.285Z,96979
2019-04-04T19:28:20.531Z,96979
2019-04-04T19:28:41.006Z,96979
2019-04-04T19:29:49.324Z,96979
2019-04-04T19:30:09.857Z,96980
2019-04-04T19:31:18.057Z,96979
2019-04-04T19:31:38.849Z,96979
2019-04-04T19:32:46.864Z,96978
2019-04-04T19:33:07.571Z,96978
2019-04-04T19:34:17.573Z,96977
2019-04-04T19:34:36.625Z,96977
2019-04-04T19:35:47.248Z,96973
2019-04-04T19:36:05.662Z,96973
2019-04-04T19:37:16.846Z,96970
2019-04-04T19:37:34.364Z,96970
2019-04-04T19:38:45.564Z,96969
2019-04-04T19:39:03.965Z,96970
2019-04-04T19:40:14.298Z,96968
2019-04-04T19:40:32.692Z,96969
2019-04-04T19:41:43.251Z,96971
2019-04-04T19:42:01.583Z,96971
2019-04-04T19:43:23.013Z,96971
2019-04-04T19:43:31.337Z,96971
2019-04-04T19:44:58.369Z,96967
2019-04-04T19:45:00.145Z,96966
2019-04-04T19:46:37.503Z,96957
2019-04-04T19:46:41.653Z,96956
2019-04-04T19:48:06.733Z,96951
2019-04-04T19:48:11.255Z,96950
2019-04-04T19:49:35.493Z,96950
2019-04-04T19:49:40.939Z,96950
2019-04-04T19:51:04.212Z,96955
2019-04-04T19:51:09.682Z,96956
2019-04-04T19:52:32.932Z,96963
2019-04-04T19:52:40.225Z,96963
2019-04-04T19:54:01.826Z,96968
2019-04-04T19:54:08.932Z,96967
2019-04-04T19:55:30.539Z,96972
2019-04-04T19:55:37.652Z,96973
2019-04-04T19:56:59.377Z,96979
2019-04-04T19:57:06.619Z,96979
2019-04-04T19:58:28.303Z,96985
2019-04-04T19:58:35.354Z,96987
2019-04-04T19:59:58.135Z,96990
2019-04-04T20:00:05.013Z,96991
2019-04-04T20:01:26.871Z,96993
2019-04-04T20:01:34.052Z,96994
2019-04-04T20:02:55.734Z,96995
2019-04-04T20:03:02.850Z,96994
2019-04-04T20:04:24.455Z,96994
2019-04-04T20:04:32.443Z,96993
2019-04-04T20:05:53.705Z,96995
2019-04-04T20:06:02.096Z,96994
2019-04-04T20:07:22.431Z,96993
2019-04-04T20:07:31.001Z,96994
2019-04-04T20:08:53.834Z,96995
2019-04-04T20:08:59.791Z,96995
2019-04-04T20:10:22.693Z,96991
2019-04-04T20:10:28.510Z,96990
2019-04-04T20:11:51.472Z,96983
2019-04-04T20:11:58.151Z,96983
2019-04-04T20:13:31.337Z,96978
2019-04-04T20:13:36.125Z,96977
2019-04-04T20:15:00.280Z,96977
2019-04-04T20:15:04.904Z,96976
2019-04-04T20:16:29.954Z,96980
2019-04-04T20:16:33.705Z,96981
2019-04-04T20:17:58.665Z,96983
2019-04-04T20:18:02.429Z,96984
2019-04-04T20:19:27.386Z,96986
2019-04-04T20:19:31.460Z,96987
2019-04-04T20:20:56.096Z,96989
2019-04-04T20:21:02.022Z,96988
2019-04-04T20:22:24.820Z,96988
2019-04-04T20:22:30.735Z,96988
2019-04-04T20:23:54.426Z,96988
2019-04-04T20:23:59.452Z,96987
2019-04-04T20:25:24.021Z,96993
2019-04-04T20:25:28.171Z,96994
2019-04-04T20:26:52.734Z,97001
2019-04-04T20:26:56.902Z,97002
2019-04-04T20:28:22.411Z,97011
2019-04-04T20:28:27.371Z,97011
2019-04-04T20:29:51.127Z,97017
2019-04-04T20:29:56.092Z,97016
2019-04-04T20:31:19.854Z,97019
2019-04-04T20:31:27.053Z,97019
2019-04-04T20:32:48.651Z,97017
2019-04-04T20:32:55.778Z,97017